Time;durP1;ratioP1;P1;durP2;ratioP2;P2;SDS_P1;SDS_P2;PMS_P1;PMS_P2;Temp;Humidity;BMP_temperature;BMP_pressure;BME280_temperature;BME280_humidity;BME280_pressure;Samples;Min_cycle;Max_cycle;Signal;HPM_P1;HPM_P2
2023/12/24 00:00:23;;;;;;;1.37;1.07;;;1.30;53.30;;;;;;4935803;29;20467;-57
2023/12/24 00:02:50;;;;;;;1.87;0.93;;;1.30;53.60;;;;;;4935232;29;20449;-58
2023/12/24 00:05:18;;;;;;;1.10;1.00;;;1.30;53.50;;;;;;4937305;29;20443;-57
2023/12/24 00:07:44;;;;;;;1.60;1.10;;;1.20;53.80;;;;;;4934652;28;20506;-58
2023/12/24 00:10:11;;;;;;;1.60;1.00;;;1.20;53.60;;;;;;4931794;29;20490;-58
2023/12/24 00:12:38;;;;;;;1.80;1.30;;;1.20;54.20;;;;;;4939354;28;20945;-58
2023/12/24 00:15:07;;;;;;;1.50;1.40;;;1.20;53.20;;;;;;4935627;29;20490;-58
2023/12/24 00:17:34;;;;;;;1.00;1.00;;;1.20;52.60;;;;;;4936344;29;20478;-57
2023/12/24 00:20:00;;;;;;;1.57;1.47;;;1.10;52.60;;;;;;4936967;29;20810;-57
2023/12/24 00:22:29;;;;;;;1.53;1.33;;;1.20;52.90;;;;;;4933082;29;21036;-57
2023/12/24 00:24:56;;;;;;;1.50;1.40;;;1.20;52.30;;;;;;4939253;29;20859;-57
2023/12/24 00:27:22;;;;;;;1.50;0.97;;;1.10;52.70;;;;;;4939241;29;20490;-57
2023/12/24 00:29:49;;;;;;;1.50;1.40;;;1.10;52.80;;;;;;4940406;29;20466;-58
2023/12/24 00:32:16;;;;;;;2.30;1.50;;;1.10;53.00;;;;;;4941597;29;20780;-58
2023/12/24 00:34:43;;;;;;;1.50;1.40;;;1.10;53.00;;;;;;4935699;29;20485;-58
2023/12/24 00:37:10;;;;;;;1.73;1.63;;;1.10;52.60;;;;;;4942033;29;20468;-57
2023/12/24 00:39:37;;;;;;;1.70;1.60;;;1.10;52.00;;;;;;4931554;29;20553;-58
2023/12/24 00:42:04;;;;;;;1.60;1.50;;;1.10;52.40;;;;;;4936803;29;20510;-58
2023/12/24 00:44:31;;;;;;;1.53;1.43;;;1.10;52.20;;;;;;4936465;29;20475;-58
2023/12/24 00:46:57;;;;;;;1.47;1.37;;;1.10;52.20;;;;;;4936412;29;20495;-57
2023/12/24 00:49:25;;;;;;;1.30;1.20;;;1.10;52.30;;;;;;4933656;29;20522;-57
2023/12/24 00:51:53;;;;;;;2.17;1.73;;;1.10;52.50;;;;;;4934883;29;20539;-58
2023/12/24 00:54:19;;;;;;;1.13;1.13;;;1.10;52.70;;;;;;4930204;29;20492;-58
2023/12/24 00:56:47;;;;;;;1.57;1.47;;;1.10;53.00;;;;;;4935384;29;20467;-58
2023/12/24 00:59:14;;;;;;;1.30;1.30;;;1.00;53.10;;;;;;4936740;29;20503;-58
2023/12/24 01:01:40;;;;;;;1.73;1.63;;;1.10;52.70;;;;;;4936466;29;20455;-58
2023/12/24 01:04:07;;;;;;;1.60;1.50;;;1.10;52.20;;;;;;4936043;29;20452;-58
2023/12/24 01:06:33;;;;;;;1.50;1.50;;;1.10;52.20;;;;;;4930541;29;20499;-58
2023/12/24 01:09:00;;;;;;;1.20;1.20;;;1.00;52.70;;;;;;4931641;29;20487;-60
2023/12/24 01:11:26;;;;;;;1.10;1.10;;;1.10;52.30;;;;;;4926388;29;20500;-56
2023/12/24 01:13:54;;;;;;;1.30;1.30;;;1.00;52.60;;;;;;4932589;29;20533;-57
2023/12/24 01:16:21;;;;;;;1.50;1.40;;;1.00;52.00;;;;;;4933140;29;20470;-58
2023/12/24 01:18:48;;;;;;;1.43;1.33;;;1.00;52.20;;;;;;4932870;29;21087;-61
2023/12/24 01:21:14;;;;;;;1.10;1.10;;;1.00;52.50;;;;;;4922829;29;20469;-60
2023/12/24 01:23:41;;;;;;;1.70;1.60;;;1.00;53.00;;;;;;4935371;29;20451;-61
2023/12/24 01:26:08;;;;;;;1.53;1.50;;;1.00;52.60;;;;;;4933108;29;20503;-61
2023/12/24 01:28:34;;;;;;;1.27;1.17;;;1.00;52.60;;;;;;4935365;29;20467;-60
2023/12/24 01:31:02;;;;;;;1.10;1.10;;;1.00;53.60;;;;;;4935724;29;20475;-57
2023/12/24 01:33:29;;;;;;;1.20;1.10;;;1.00;54.30;;;;;;4935623;29;20444;-58
2023/12/24 01:35:55;;;;;;;1.43;1.40;;;1.00;54.00;;;;;;4931984;29;21048;-57
2023/12/24 01:38:22;;;;;;;0.90;0.90;;;1.00;53.50;;;;;;4937819;29;20541;-57
2023/12/24 01:40:50;;;;;;;1.10;1.10;;;1.00;53.40;;;;;;4932438;29;20472;-58
2023/12/24 01:43:16;;;;;;;1.10;1.00;;;1.00;52.90;;;;;;4937808;29;20452;-58
2023/12/24 01:45:43;;;;;;;0.90;0.90;;;1.00;53.20;;;;;;4936836;29;20849;-59
2023/12/24 01:48:14;;;;;;;1.00;0.77;;;1.00;52.60;;;;;;4937378;29;20464;-57
2023/12/24 01:50:41;;;;;;;0.83;0.83;;;1.00;52.40;;;;;;4933081;29;20957;-57
2023/12/24 01:53:08;;;;;;;0.90;0.90;;;1.00;52.60;;;;;;4936831;29;20443;-57
2023/12/24 01:55:34;;;;;;;1.03;1.03;;;1.00;52.50;;;;;;4936068;29;21015;-58
2023/12/24 01:58:01;;;;;;;0.70;0.70;;;1.00;52.70;;;;;;4934438;29;20531;-58
2023/12/24 02:00:28;;;;;;;0.87;0.87;;;1.00;53.20;;;;;;4935672;29;20483;-60
2023/12/24 02:02:55;;;;;;;0.70;0.70;;;1.00;52.60;;;;;;4936117;29;20451;-59
2023/12/24 02:05:23;;;;;;;0.70;0.70;;;1.00;52.60;;;;;;4930243;29;20439;-57
2023/12/24 02:07:52;;;;;;;0.70;0.70;;;1.00;53.00;;;;;;4933476;29;20902;-57
2023/12/24 02:10:19;;;;;;;0.80;0.80;;;1.00;53.00;;;;;;4935416;29;20447;-57
2023/12/24 02:12:45;;;;;;;0.80;0.80;;;1.00;52.50;;;;;;4932954;29;20883;-60
2023/12/24 02:15:12;;;;;;;1.10;1.00;;;1.00;52.80;;;;;;4933866;29;20487;-61
2023/12/24 02:17:40;;;;;;;0.90;0.90;;;1.00;52.50;;;;;;4934000;29;20495;-61
2023/12/24 02:20:07;;;;;;;1.00;1.00;;;1.00;52.70;;;;;;4933870;29;20498;-60
2023/12/24 02:22:35;;;;;;;0.80;0.80;;;1.00;52.40;;;;;;4935273;29;20506;-61
2023/12/24 02:25:02;;;;;;;0.87;0.87;;;1.00;52.40;;;;;;4927993;29;20540;-59
2023/12/24 02:27:34;;;;;;;0.90;0.90;;;1.00;52.60;;;;;;4933289;29;20503;-61
2023/12/24 02:30:06;;;;;;;0.90;0.90;;;1.00;52.30;;;;;;4936842;29;20467;-62
2023/12/24 02:32:35;;;;;;;1.07;1.07;;;1.00;51.60;;;;;;4937104;29;20443;-62
2023/12/24 02:35:04;;;;;;;1.10;1.10;;;1.00;51.50;;;;;;4934481;29;20519;-61
2023/12/24 02:37:31;;;;;;;1.10;1.10;;;1.00;51.50;;;;;;4932772;29;20468;-60
2023/12/24 02:40:00;;;;;;;1.20;1.10;;;1.00;51.50;;;;;;4933953;29;20451;-60
2023/12/24 02:42:27;;;;;;;1.30;1.30;;;1.00;51.40;;;;;;4933680;29;20518;-61
2023/12/24 02:44:53;;;;;;;1.20;1.20;;;1.00;50.40;;;;;;4922436;29;20464;-60
2023/12/24 02:47:20;;;;;;;1.00;1.00;;;1.00;51.50;;;;;;4932059;29;20849;-60
2023/12/24 02:49:46;;;;;;;1.53;1.53;;;1.00;50.60;;;;;;4931896;29;21024;-60
2023/12/24 02:52:13;;;;;;;1.47;1.47;;;1.00;50.40;;;;;;4934089;29;20447;-60
2023/12/24 02:54:45;;;;;;;1.30;1.30;;;1.00;50.40;;;;;;4930433;29;20515;-60
2023/12/24 02:57:13;;;;;;;1.73;1.63;;;1.00;50.40;;;;;;4932927;29;20538;-61
2023/12/24 02:59:40;;;;;;;1.30;1.30;;;1.00;49.30;;;;;;4925144;29;20464;-60
2023/12/24 03:02:06;;;;;;;1.43;1.43;;;1.00;48.70;;;;;;4939002;29;20477;-61
2023/12/24 03:04:33;;;;;;;1.60;1.60;;;1.00;48.70;;;;;;4936090;29;20463;-61
2023/12/24 03:07:00;;;;;;;1.70;1.70;;;0.90;49.10;;;;;;4936022;29;20535;-60
2023/12/24 03:09:26;;;;;;;2.40;2.20;;;0.90;48.60;;;;;;4940326;29;20965;-60
2023/12/24 03:11:53;;;;;;;2.67;2.47;;;1.00;46.30;;;;;;4933582;29;20819;-61
2023/12/24 03:14:20;;;;;;;2.30;2.20;;;1.00;46.10;;;;;;4940540;29;20874;-61
2023/12/24 03:16:47;;;;;;;2.43;2.33;;;1.00;46.00;;;;;;4930478;29;21091;-62
2023/12/24 03:19:14;;;;;;;2.63;2.53;;;1.00;45.70;;;;;;4936750;29;20507;-62
2023/12/24 03:21:41;;;;;;;2.40;2.30;;;0.90;45.90;;;;;;4937550;29;20443;-62
2023/12/24 03:24:08;;;;;;;3.00;2.90;;;1.00;45.40;;;;;;4933604;29;20447;-60
2023/12/24 03:26:35;;;;;;;2.60;2.50;;;1.00;45.20;;;;;;4930410;29;20483;-60
2023/12/24 03:29:01;;;;;;;2.40;2.30;;;1.00;44.50;;;;;;4933016;29;20503;-60
2023/12/24 03:31:29;;;;;;;3.40;3.20;;;1.00;42.70;;;;;;4933571;29;20471;-61
2023/12/24 03:33:56;;;;;;;3.30;3.10;;;1.10;41.40;;;;;;4929665;29;20467;-60
2023/12/24 03:36:22;;;;;;;3.90;3.70;;;1.00;41.10;;;;;;4930817;29;20467;-59
2023/12/24 03:38:49;;;;;;;3.63;3.43;;;1.00;41.30;;;;;;4928892;29;20464;-60
2023/12/24 03:41:16;;;;;;;3.10;3.00;;;1.00;41.10;;;;;;4934407;29;20502;-61
2023/12/24 03:43:43;;;;;;;3.63;3.43;;;1.00;40.20;;;;;;4936703;29;20514;-60
2023/12/24 03:46:09;;;;;;;4.30;3.73;;;1.00;39.90;;;;;;4933784;29;20496;-60
2023/12/24 03:48:38;;;;;;;3.20;3.00;;;1.00;40.10;;;;;;4937377;29;20493;-60
2023/12/24 03:51:05;;;;;;;4.37;4.07;;;1.10;39.90;;;;;;4937615;29;20507;-61
2023/12/24 03:53:31;;;;;;;4.87;4.47;;;1.00;39.40;;;;;;4932639;29;20469;-60
2023/12/24 03:55:58;;;;;;;4.40;4.10;;;1.10;39.10;;;;;;4936989;29;20487;-60
2023/12/24 03:58:25;;;;;;;4.10;3.80;;;1.00;39.10;;;;;;4932744;29;20549;-60
2023/12/24 04:00:51;;;;;;;4.43;4.13;;;1.00;39.30;;;;;;4936859;29;20451;-60
2023/12/24 04:03:18;;;;;;;3.87;3.67;;;1.00;39.10;;;;;;4936403;29;20874;-61
2023/12/24 04:05:46;;;;;;;4.63;4.30;;;1.00;38.60;;;;;;4933576;29;20467;-60
2023/12/24 04:08:13;;;;;;;3.77;3.57;;;1.00;38.00;;;;;;4928850;29;20483;-60
2023/12/24 04:10:39;;;;;;;3.20;3.00;;;1.00;38.00;;;;;;4936492;29;20451;-61
2023/12/24 04:13:06;;;;;;;3.43;3.30;;;1.00;37.70;;;;;;4931209;29;20550;-61
2023/12/24 04:15:33;;;;;;;4.33;4.03;;;1.10;37.30;;;;;;4932679;29;20881;-61
2023/12/24 04:18:00;;;;;;;3.77;3.57;;;1.10;37.00;;;;;;4928704;29;20530;-60
2023/12/24 04:20:26;;;;;;;4.50;4.10;;;1.10;36.90;;;;;;4927959;29;20965;-55
2023/12/24 04:22:54;;;;;;;3.60;3.40;;;1.10;36.90;;;;;;4943128;28;20973;-57
2023/12/24 04:25:21;;;;;;;3.90;3.70;;;1.10;36.80;;;;;;4935565;29;20457;-56
2023/12/24 04:27:47;;;;;;;3.90;3.70;;;1.10;36.80;;;;;;4933929;28;20487;-56
2023/12/24 04:30:14;;;;;;;3.90;3.63;;;1.10;36.40;;;;;;4931496;29;20546;-56
2023/12/24 04:32:40;;;;;;;3.27;3.17;;;1.10;36.20;;;;;;4933018;29;20468;-56
2023/12/24 04:35:08;;;;;;;4.20;3.90;;;1.10;36.00;;;;;;4926430;29;20483;-56
2023/12/24 04:37:36;;;;;;;3.30;3.10;;;1.10;35.90;;;;;;4932095;29;20497;-56
2023/12/24 04:40:05;;;;;;;3.23;3.03;;;1.10;35.70;;;;;;4937598;29;20845;-57
2023/12/24 04:42:31;;;;;;;2.37;2.20;;;1.10;35.70;;;;;;4934435;29;20519;-57
2023/12/24 04:44:58;;;;;;;2.50;2.40;;;1.10;35.40;;;;;;4935431;29;20460;-56
2023/12/24 04:47:24;;;;;;;3.27;3.00;;;1.10;35.30;;;;;;4929465;29;20523;-56
2023/12/24 04:49:51;;;;;;;2.33;2.23;;;1.10;35.00;;;;;;4931679;29;20961;-56
2023/12/24 04:52:18;;;;;;;2.70;2.50;;;1.20;34.70;;;;;;4927133;29;21147;-57
2023/12/24 04:54:44;;;;;;;2.20;2.10;;;1.30;34.20;;;;;;4927957;29;20547;-57
2023/12/24 04:57:12;;;;;;;2.30;2.20;;;1.20;34.00;;;;;;4931804;29;20487;-60
2023/12/24 04:59:39;;;;;;;2.30;2.20;;;1.20;34.10;;;;;;4931227;29;20867;-61
2023/12/24 05:02:06;;;;;;;2.30;2.20;;;1.30;33.60;;;;;;4931725;29;20459;-60
2023/12/24 05:04:34;;;;;;;2.10;2.00;;;1.30;33.50;;;;;;4930668;29;20463;-61
2023/12/24 05:07:01;;;;;;;2.10;2.00;;;1.30;33.60;;;;;;4932979;29;20511;-60
2023/12/24 05:09:28;;;;;;;3.47;1.97;;;1.30;33.20;;;;;;4927792;29;21013;-60
2023/12/24 05:11:54;;;;;;;2.50;2.40;;;1.30;33.10;;;;;;4929456;29;20487;-60
2023/12/24 05:14:22;;;;;;;2.07;2.00;;;1.40;32.80;;;;;;4931985;29;20487;-62
2023/12/24 05:16:49;;;;;;;3.03;1.97;;;1.40;32.70;;;;;;4924557;29;20547;-60
2023/12/24 05:19:15;;;;;;;1.67;1.67;;;1.30;32.40;;;;;;4929955;29;20522;-61
2023/12/24 05:21:42;;;;;;;1.60;1.50;;;1.40;32.40;;;;;;4930114;29;20467;-60
2023/12/24 05:24:08;;;;;;;2.00;1.90;;;1.40;32.10;;;;;;4930004;29;20464;-60
2023/12/24 05:26:35;;;;;;;1.63;1.60;;;1.40;31.90;;;;;;4930825;29;20462;-60
2023/12/24 05:29:02;;;;;;;1.80;1.73;;;1.40;31.60;;;;;;4928677;29;20547;-60
2023/12/24 05:31:30;;;;;;;1.87;1.77;;;1.50;31.20;;;;;;4931832;29;20472;-60
2023/12/24 05:33:56;;;;;;;1.33;1.30;;;1.50;31.00;;;;;;4926967;29;20519;-60
2023/12/24 05:36:23;;;;;;;1.90;1.80;;;1.50;30.60;;;;;;4928199;29;20537;-59
2023/12/24 05:38:49;;;;;;;1.80;1.70;;;1.50;30.20;;;;;;4928441;29;20517;-60
2023/12/24 05:41:17;;;;;;;1.40;1.30;;;1.60;29.90;;;;;;4931112;29;20467;-61
2023/12/24 05:43:43;;;;;;;1.23;1.23;;;1.60;29.80;;;;;;4929438;29;20814;-61
2023/12/24 05:46:13;;;;;;;1.20;1.20;;;1.60;29.60;;;;;;4930717;29;20455;-60
2023/12/24 05:48:41;;;;;;;1.93;1.20;;;1.70;29.40;;;;;;4928178;29;20497;-60
2023/12/24 05:51:09;;;;;;;1.60;1.60;;;1.70;29.20;;;;;;4930391;29;20492;-61
2023/12/24 05:53:35;;;;;;;1.30;1.30;;;1.80;28.70;;;;;;4929429;29;20547;-60
2023/12/24 05:56:02;;;;;;;1.50;1.50;;;1.90;28.20;;;;;;4930182;29;20482;-60
2023/12/24 05:58:28;;;;;;;1.30;1.20;;;1.90;27.60;;;;;;4929481;29;20532;-61
2023/12/24 06:00:55;;;;;;;1.40;1.40;;;2.00;27.20;;;;;;4931246;29;20495;-61
2023/12/24 06:03:22;;;;;;;1.53;1.53;;;2.00;26.80;;;;;;4928481;29;20514;-62
2023/12/24 06:05:49;;;;;;;1.63;1.63;;;2.10;26.70;;;;;;4925686;29;20575;-61
2023/12/24 06:08:16;;;;;;;1.90;1.80;;;2.20;26.40;;;;;;4925607;29;20860;-61
2023/12/24 06:10:43;;;;;;;2.27;2.17;;;2.20;25.30;;;;;;4927793;29;20526;-61
2023/12/24 06:13:10;;;;;;;2.37;2.27;;;2.30;25.10;;;;;;4928417;29;20467;-61
2023/12/24 06:15:36;;;;;;;2.10;2.00;;;2.30;24.60;;;;;;4928357;29;21241;-61
2023/12/24 06:18:04;;;;;;;1.90;1.80;;;2.40;24.30;;;;;;4925747;29;20899;-61
2023/12/24 06:20:32;;;;;;;1.90;1.80;;;2.40;23.90;;;;;;4930393;29;21015;-61
2023/12/24 06:23:00;;;;;;;2.00;1.90;;;2.50;23.70;;;;;;4925966;29;20470;-61
2023/12/24 06:25:26;;;;;;;2.00;2.00;;;2.50;23.50;;;;;;4927027;29;20566;-60
2023/12/24 06:27:53;;;;;;;2.10;2.10;;;2.50;23.10;;;;;;4931701;29;20495;-60
2023/12/24 06:30:20;;;;;;;2.60;2.50;;;2.60;22.60;;;;;;4929833;29;20526;-60
2023/12/24 06:32:47;;;;;;;2.27;2.17;;;2.60;22.10;;;;;;4929974;29;20471;-60
2023/12/24 06:35:15;;;;;;;1.93;1.83;;;2.70;22.50;;;;;;4927550;29;20491;-59
2023/12/24 06:37:41;;;;;;;2.70;2.60;;;2.70;21.60;;;;;;4926883;29;20527;-60
2023/12/24 06:40:10;;;;;;;1.93;1.83;;;2.80;21.10;;;;;;4928644;29;20472;-61
2023/12/24 06:42:37;;;;;;;2.20;2.10;;;2.80;21.10;;;;;;4921406;29;20549;-61
2023/12/24 06:45:04;;;;;;;1.73;1.73;;;2.90;20.60;;;;;;4928627;29;20467;-60
2023/12/24 06:47:31;;;;;;;1.83;1.83;;;3.00;20.50;;;;;;4929337;29;20478;-60
2023/12/24 06:49:57;;;;;;;1.80;1.80;;;3.00;20.10;;;;;;4933106;29;20444;-61
2023/12/24 06:52:24;;;;;;;2.57;2.43;;;3.10;20.00;;;;;;4929971;29;20495;-60
2023/12/24 06:54:51;;;;;;;2.60;2.40;;;3.20;76.90;;;;;;4933274;29;20456;-61
2023/12/24 06:57:19;;;;;;;2.70;2.50;;;3.40;80.30;;;;;;4928077;29;20518;-60
2023/12/24 06:59:46;;;;;;;3.30;2.60;;;3.60;82.50;;;;;;4921136;29;20571;-61
2023/12/24 07:02:12;;;;;;;5.20;2.83;;;3.70;88.10;;;;;;4926161;29;20542;-62
2023/12/24 07:04:39;;;;;;;5.10;3.77;;;3.80;89.40;;;;;;4928561;29;20467;-63
2023/12/24 07:07:06;;;;;;;4.00;3.20;;;4.00;94.60;;;;;;4925221;29;20534;-60
2023/12/24 07:09:33;;;;;;;3.77;2.93;;;4.10;97.60;;;;;;4923882;29;21183;-61
2023/12/24 07:11:59;;;;;;;3.53;2.53;;;4.20;99.90;;;;;;4930536;29;20942;-62
2023/12/24 07:14:27;;;;;;;2.70;2.50;;;4.40;99.90;;;;;;4928373;29;20481;-59
2023/12/24 07:16:54;;;;;;;6.53;4.00;;;4.60;99.90;;;;;;4924859;29;20911;-60
2023/12/24 07:19:21;;;;;;;3.90;3.00;;;4.60;99.90;;;;;;4927768;29;20895;-60
2023/12/24 07:21:47;;;;;;;2.23;2.13;;;4.70;99.90;;;;;;4925991;29;20467;-61
2023/12/24 07:24:15;;;;;;;2.33;2.13;;;4.80;99.90;;;;;;4930300;29;20522;-60
2023/12/24 07:26:41;;;;;;;1.70;1.60;;;5.00;99.90;;;;;;4927798;29;20472;-60
2023/12/24 07:29:08;;;;;;;1.77;1.47;;;5.00;99.90;;;;;;4930594;29;20463;-60
2023/12/24 07:31:36;;;;;;;1.60;1.50;;;5.10;99.90;;;;;;4932215;29;20456;-61
2023/12/24 07:34:03;;;;;;;1.30;1.20;;;5.30;99.90;;;;;;4926334;29;20455;-60
2023/12/24 07:36:29;;;;;;;1.33;1.20;;;5.50;99.90;;;;;;4934027;28;20523;-60
2023/12/24 07:38:56;;;;;;;1.70;1.60;;;5.60;99.90;;;;;;4939756;29;20502;-62
2023/12/24 07:41:26;;;;;;;1.40;1.30;;;5.80;99.90;;;;;;4940594;29;20446;-61
2023/12/24 07:43:52;;;;;;;1.10;1.00;;;6.00;99.90;;;;;;4936536;29;20934;-60
2023/12/24 07:46:19;;;;;;;1.10;1.00;;;6.10;99.90;;;;;;4928787;29;20515;-60
2023/12/24 07:48:47;;;;;;;1.00;0.90;;;6.30;99.90;;;;;;4929684;29;20519;-60
2023/12/24 07:51:13;;;;;;;0.70;0.70;;;6.30;99.90;;;;;;4924760;29;20515;-60
2023/12/24 07:53:40;;;;;;;0.70;0.70;;;6.40;99.90;;;;;;4929500;29;20468;-59
2023/12/24 07:56:07;;;;;;;0.90;0.90;;;6.60;99.90;;;;;;4930135;29;23010;-60
2023/12/24 07:58:34;;;;;;;0.70;0.70;;;6.60;99.90;;;;;;4932033;29;20571;-60
2023/12/24 08:01:01;;;;;;;1.00;1.00;;;6.60;99.90;;;;;;4927697;29;20460;-60
2023/12/24 08:03:27;;;;;;;0.80;0.80;;;6.70;99.90;;;;;;4928323;29;20879;-61
2023/12/24 08:05:55;;;;;;;1.33;0.80;;;6.80;99.90;;;;;;4929830;29;20467;-59
2023/12/24 08:08:22;;;;;;;1.00;1.00;;;7.00;99.90;;;;;;4929426;29;20487;-60
2023/12/24 08:10:48;;;;;;;0.77;0.77;;;7.10;99.90;;;;;;4926337;29;20475;-61
2023/12/24 08:13:15;;;;;;;1.30;1.20;;;7.20;99.90;;;;;;4929531;29;20462;-59
2023/12/24 08:15:41;;;;;;;1.20;1.20;;;7.20;99.90;;;;;;4923443;29;20539;-59
2023/12/24 08:18:08;;;;;;;1.33;1.13;;;7.20;99.90;;;;;;4924781;29;20513;-60
2023/12/24 08:20:34;;;;;;;1.17;1.00;;;7.30;99.90;;;;;;4932801;29;20463;-60
2023/12/24 08:23:03;;;;;;;1.10;1.10;;;7.30;99.90;;;;;;4932833;29;20443;-61
2023/12/24 08:25:29;;;;;;;0.97;0.97;;;7.30;99.90;;;;;;4934134;29;20439;-59
2023/12/24 08:27:56;;;;;;;1.97;0.90;;;7.40;99.90;;;;;;4935158;29;20486;-61
2023/12/24 08:30:22;;;;;;;1.00;1.00;;;7.40;99.90;;;;;;4928310;29;20455;-61
2023/12/24 08:32:50;;;;;;;1.37;1.27;;;7.40;99.90;;;;;;4936485;29;20455;-60
2023/12/24 08:35:16;;;;;;;1.17;1.13;;;7.50;99.90;;;;;;4931468;29;20546;-60
2023/12/24 08:37:43;;;;;;;1.33;1.23;;;7.50;99.90;;;;;;4939872;29;20502;-60
2023/12/24 08:40:12;;;;;;;1.93;1.03;;;7.50;99.90;;;;;;4937617;29;20444;-61
2023/12/24 08:42:39;;;;;;;3.90;1.37;;;7.50;99.90;;;;;;4934680;29;20443;-60
2023/12/24 08:45:06;;;;;;;1.50;1.40;;;7.60;99.90;;;;;;4936713;29;21009;-60
2023/12/24 08:47:33;;;;;;;1.30;1.30;;;7.60;99.90;;;;;;4931278;29;20515;-60
2023/12/24 08:49:59;;;;;;;1.30;1.30;;;7.60;99.90;;;;;;4935323;29;20895;-60
2023/12/24 08:52:26;;;;;;;1.90;1.80;;;7.60;99.90;;;;;;4932931;29;20467;-59
2023/12/24 08:54:52;;;;;;;3.87;1.60;;;7.60;99.90;;;;;;4937569;29;20507;-60
2023/12/24 08:57:20;;;;;;;1.93;1.40;;;7.70;99.90;;;;;;4934711;29;20495;-61
2023/12/24 08:59:47;;;;;;;1.57;1.47;;;7.70;99.90;;;;;;4932084;29;20487;-60
2023/12/24 09:02:13;;;;;;;2.97;1.60;;;7.70;99.90;;;;;;4926561;29;20467;-61
2023/12/24 09:04:40;;;;;;;1.50;1.40;;;7.70;99.90;;;;;;4924928;29;20535;-60
2023/12/24 09:07:07;;;;;;;1.63;1.53;;;7.80;99.90;;;;;;4926958;29;20486;-60
2023/12/24 09:09:33;;;;;;;1.90;1.80;;;7.80;99.90;;;;;;4918184;29;20559;-61
2023/12/24 09:12:00;;;;;;;1.40;1.40;;;7.80;99.90;;;;;;4921569;29;20518;-60
2023/12/24 09:14:28;;;;;;;1.40;1.40;;;7.90;99.90;;;;;;4934083;29;20492;-60
2023/12/24 09:16:54;;;;;;;1.87;1.77;;;7.80;99.90;;;;;;4927474;29;20875;-60
2023/12/24 09:19:21;;;;;;;1.77;1.73;;;7.90;99.90;;;;;;4931019;29;20494;-60
2023/12/24 09:21:47;;;;;;;2.00;1.90;;;7.90;99.90;;;;;;4938657;29;20522;-61
2023/12/24 09:24:14;;;;;;;1.60;1.50;;;7.90;99.90;;;;;;4929474;29;20490;-60
2023/12/24 09:26:41;;;;;;;2.00;1.70;;;7.90;99.90;;;;;;4933853;29;20455;-60
2023/12/24 09:29:07;;;;;;;2.57;2.30;;;7.90;99.90;;;;;;4931424;29;20499;-60
2023/12/24 09:31:35;;;;;;;1.83;1.33;;;8.00;99.90;;;;;;4930266;29;20518;-61
2023/12/24 09:34:02;;;;;;;1.80;1.70;;;8.00;99.90;;;;;;4929829;29;20472;-60
2023/12/24 09:36:29;;;;;;;1.87;1.50;;;8.00;99.90;;;;;;4933661;29;20491;-60
2023/12/24 09:38:57;;;;;;;1.70;1.63;;;8.00;99.90;;;;;;4933408;29;22812;-60
2023/12/24 09:41:23;;;;;;;1.67;1.67;;;8.10;99.90;;;;;;4930671;29;20476;-61
2023/12/24 09:43:50;;;;;;;1.80;1.70;;;8.00;99.90;;;;;;4929525;29;20539;-62
2023/12/24 09:46:17;;;;;;;2.43;2.20;;;8.10;99.90;;;;;;4943344;29;20435;-60
2023/12/24 09:48:44;;;;;;;2.30;2.13;;;8.10;99.90;;;;;;4934075;29;20474;-60
2023/12/24 09:51:11;;;;;;;1.80;1.70;;;8.10;99.90;;;;;;4925172;29;20463;-60
2023/12/24 09:53:39;;;;;;;6.53;2.10;;;8.20;99.90;;;;;;4932450;29;20514;-60
2023/12/24 09:56:06;;;;;;;2.20;2.10;;;8.20;99.90;;;;;;4927364;29;20467;-60
2023/12/24 09:58:31;;;;;;;2.60;2.07;;;8.20;99.90;;;;;;4933831;29;20554;-60
2023/12/24 10:00:58;;;;;;;2.10;2.00;;;8.20;99.90;;;;;;4935297;29;20546;-60
2023/12/24 10:03:25;;;;;;;1.90;1.80;;;8.20;99.90;;;;;;4941184;29;20235;-61
2023/12/24 10:06:04;;;;;;;2.10;1.90;;;8.20;99.90;;;;;;4933881;29;20516;-60
2023/12/24 10:08:31;;;;;;;3.10;1.50;;;8.30;99.90;;;;;;4924854;29;22571;-59
2023/12/24 10:10:57;;;;;;;2.40;1.70;;;8.30;99.90;;;;;;4934607;29;20511;-60
2023/12/24 10:13:24;;;;;;;1.17;1.17;;;8.30;99.90;;;;;;4921020;29;20477;-59
2023/12/24 10:16:03;;;;;;;1.40;1.40;;;8.40;99.90;;;;;;4922572;29;20451;-60
2023/12/24 10:18:30;;;;;;;1.50;1.50;;;8.40;99.90;;;;;;4929678;29;20542;-60
2023/12/24 10:21:05;;;;;;;1.20;1.20;;;8.40;99.90;;;;;;4936022;29;20510;-60
2023/12/24 10:23:32;;;;;;;1.30;1.30;;;8.40;99.90;;;;;;4936242;29;20484;-61
2023/12/24 10:26:02;;;;;;;1.30;1.20;;;8.40;99.90;;;;;;4924677;29;20469;-60
2023/12/24 10:28:28;;;;;;;1.40;1.30;;;8.40;99.90;;;;;;4922839;29;20522;-60
2023/12/24 10:31:06;;;;;;;1.00;1.00;;;8.40;99.90;;;;;;4929188;29;20463;-59
2023/12/24 10:33:32;;;;;;;1.53;1.00;;;8.40;99.90;;;;;;4932437;29;20450;-61
2023/12/24 10:35:59;;;;;;;1.10;1.10;;;8.40;99.90;;;;;;4934809;29;20494;-60
2023/12/24 10:38:28;;;;;;;1.40;1.30;;;8.50;99.90;;;;;;4929434;29;20532;-60
2023/12/24 10:40:55;;;;;;;1.00;1.00;;;8.50;99.90;;;;;;4926297;29;20472;-60
2023/12/24 10:43:21;;;;;;;2.57;1.40;;;8.50;99.90;;;;;;4932878;29;20451;-61
2023/12/24 10:45:48;;;;;;;0.97;0.90;;;8.50;99.90;;;;;;4931768;29;20447;-60
2023/12/24 10:48:15;;;;;;;1.40;1.30;;;8.50;99.90;;;;;;4928143;29;20506;-60
2023/12/24 10:50:41;;;;;;;0.93;0.93;;;8.50;99.90;;;;;;4932077;29;20499;-60
2023/12/24 10:53:08;;;;;;;1.10;1.10;;;8.60;99.90;;;;;;4935518;29;20454;-59
2023/12/24 10:55:37;;;;;;;2.10;0.90;;;8.60;99.90;;;;;;4932334;29;20451;-59
2023/12/24 10:58:11;;;;;;;0.87;0.87;;;8.60;99.90;;;;;;4956692;23;20998;-54
2023/12/24 11:00:37;;;;;;;0.60;0.60;;;8.70;99.90;;;;;;4966596;28;20464;-55
2023/12/24 11:03:04;;;;;;;1.30;0.80;;;8.70;99.90;;;;;;4970269;28;20503;-55
2023/12/24 11:05:50;;;;;;;1.90;1.10;;;8.70;99.90;;;;;;4975903;28;20512;-55
2023/12/24 11:08:30;;;;;;;0.80;0.80;;;8.70;99.90;;;;;;4975907;28;20501;-54
2023/12/24 11:10:58;;;;;;;0.73;0.73;;;8.70;99.90;;;;;;4972224;28;20461;-53
2023/12/24 11:13:47;;;;;;;1.87;1.10;;;8.80;99.90;;;;;;4959387;28;20461;-55
2023/12/24 11:16:39;;;;;;;0.80;0.80;;;8.80;99.90;;;;;;4964985;28;20454;-61
2023/12/24 11:19:05;;;;;;;1.10;1.00;;;8.80;99.90;;;;;;4954344;28;20488;-54
2023/12/24 11:21:52;;;;;;;0.80;0.80;;;8.90;99.90;;;;;;4949389;28;20557;-54
2023/12/24 11:24:25;;;;;;;1.00;0.90;;;8.90;99.90;;;;;;4956862;28;20992;-55
2023/12/24 11:26:53;;;;;;;1.00;1.00;;;8.90;99.90;;;;;;4947075;28;20458;-53
2023/12/24 11:29:43;;;;;;;0.80;0.80;;;8.90;99.90;;;;;;4953944;28;20492;-54
2023/12/24 11:32:35;;;;;;;0.90;0.80;;;8.90;99.90;;;;;;4956447;28;20513;-54
2023/12/24 11:35:02;;;;;;;0.80;0.80;;;8.90;99.90;;;;;;4951719;28;20473;-55
2023/12/24 11:37:30;;;;;;;1.67;0.90;;;9.00;99.90;;;;;;4945809;28;20490;-57
2023/12/24 11:40:02;;;;;;;0.90;0.90;;;9.00;99.90;;;;;;4958640;29;20467;-55
2023/12/24 11:42:43;;;;;;;1.00;1.00;;;9.00;99.90;;;;;;4957870;28;20471;-61
2023/12/24 11:45:20;;;;;;;1.97;1.87;;;9.00;99.90;;;;;;4961939;28;20477;-55
2023/12/24 11:47:47;;;;;;;1.53;1.43;;;9.10;99.90;;;;;;4946906;28;20514;-55
2023/12/24 11:50:13;;;;;;;0.90;0.90;;;9.10;99.90;;;;;;4945160;28;20995;-55
2023/12/24 11:52:43;;;;;;;0.70;0.63;;;9.10;99.90;;;;;;4947320;28;20964;-55
2023/12/24 11:55:11;;;;;;;0.90;0.90;;;9.10;99.90;;;;;;4950222;28;20944;-55
2023/12/24 11:57:39;;;;;;;0.73;0.70;;;9.10;99.90;;;;;;4950377;28;20505;-55
2023/12/24 12:00:11;;;;;;;1.03;0.93;;;9.10;99.90;;;;;;4952160;28;20465;-54
2023/12/24 12:02:38;;;;;;;0.70;0.70;;;9.10;99.90;;;;;;4959157;28;20489;-55
2023/12/24 12:05:05;;;;;;;1.07;0.97;;;9.10;99.90;;;;;;4949422;28;20494;-55
2023/12/24 12:07:32;;;;;;;0.80;0.80;;;9.10;99.90;;;;;;4952070;28;20486;-53
2023/12/24 12:09:59;;;;;;;0.80;0.80;;;9.10;99.90;;;;;;4955854;28;20813;-54
2023/12/24 12:12:27;;;;;;;3.13;0.90;;;9.10;99.90;;;;;;4948583;28;20466;-54
2023/12/24 12:14:53;;;;;;;0.70;0.70;;;9.20;99.90;;;;;;4950722;28;20466;-54
2023/12/24 12:17:20;;;;;;;0.80;0.80;;;9.20;99.90;;;;;;4951204;28;20540;-54
2023/12/24 12:19:46;;;;;;;1.00;1.00;;;9.20;99.90;;;;;;4952936;28;20477;-54
2023/12/24 12:22:13;;;;;;;1.30;1.17;;;9.20;99.90;;;;;;4952668;28;20513;-54
2023/12/24 12:24:40;;;;;;;1.57;1.00;;;9.20;99.90;;;;;;4952034;29;20498;-55
2023/12/24 12:27:06;;;;;;;1.03;1.00;;;9.20;99.90;;;;;;4952574;28;20469;-55
2023/12/24 12:29:34;;;;;;;0.97;0.90;;;9.20;99.90;;;;;;4950892;28;20458;-53
2023/12/24 12:32:02;;;;;;;1.30;1.20;;;9.20;99.90;;;;;;4952291;29;20471;-54
2023/12/24 12:34:28;;;;;;;2.80;2.60;;;9.20;99.90;;;;;;4951367;28;20501;-54
2023/12/24 12:36:55;;;;;;;5.30;4.90;;;9.20;99.90;;;;;;4959939;28;20532;-54
2023/12/24 12:39:22;;;;;;;2.40;2.30;;;9.20;99.90;;;;;;4949097;28;20458;-55
2023/12/24 12:41:48;;;;;;;1.00;1.00;;;9.20;99.90;;;;;;4951335;28;20478;-55
2023/12/24 12:44:15;;;;;;;0.80;0.80;;;9.20;99.90;;;;;;4952367;28;20529;-54
2023/12/24 12:46:43;;;;;;;1.27;1.27;;;9.20;99.90;;;;;;4949188;28;20521;-55
2023/12/24 12:49:10;;;;;;;1.00;1.00;;;9.30;99.90;;;;;;4950295;28;20986;-54
2023/12/24 12:51:37;;;;;;;1.17;1.00;;;9.20;99.90;;;;;;4947250;28;20470;-54
2023/12/24 12:54:08;;;;;;;2.03;0.90;;;9.20;99.90;;;;;;4957089;28;20463;-55
2023/12/24 12:56:42;;;;;;;1.30;1.20;;;9.30;99.90;;;;;;4948072;28;20499;-55
2023/12/24 12:59:09;;;;;;;0.90;0.90;;;9.30;99.90;;;;;;4949331;28;20485;-53